Terminal Aerodrome Forecast
Issued by NWS

Home | Current Version | Previous Version | Text Only | Print | Product List | Glossary On
Versions: 1 2 3 4 5 6 7 8 9 10 11 12 13 14 15 16 17 18 19 20 21 22 23 24
000
FTUS41 KOKX 261700
TAFHPN
TAF
KHPN 261731Z 2618/2718 VRB04KT P6SM SCT060 BKN100
     FM262100 18007KT P6SM SCT060 SCT100
     FM270200 VRB04KT P6SM FEW010 BKN040 BKN100
     FM271000 17005KT 4SM SHRA BR SCT010 BKN035
     FM271500 20008KT P6SM SCT040 SCT100
      AMD NOT SKED=

USA.gov is the U.S. government's official web portal to all federal, state and local government web resources and services.